createdAt,value
2023-02-15T00:00:40.930Z,101912.91
2023-02-15T00:05:42.263Z,101901.31
2023-02-15T00:10:43.626Z,101894.72
2023-02-15T00:15:44.969Z,101884.72
2023-02-15T00:20:46.273Z,101881.66
2023-02-15T00:25:47.665Z,101883.91
2023-02-15T00:30:49.060Z,101875.03
2023-02-15T00:35:57.208Z,101875.41
2023-02-15T00:41:01.768Z,101876.44
2023-02-15T00:46:05.308Z,101877.06
2023-02-15T00:51:07.007Z,101872.50
2023-02-15T00:56:08.404Z,101873.84
2023-02-15T01:01:16.148Z,101872.03
2023-02-15T01:06:18.405Z,101870.09
2023-02-15T01:11:25.022Z,101862.75
2023-02-15T01:16:28.973Z,101866.28
2023-02-15T01:21:30.433Z,101862.34
2023-02-15T01:26:31.813Z,101855.59
2023-02-15T01:31:33.219Z,101846.66
2023-02-15T01:36:35.334Z,101839.84
2023-02-15T01:41:37.194Z,101840.38
2023-02-15T01:46:44.090Z,101831.34
2023-02-15T01:51:48.884Z,101834.84
2023-02-15T01:56:50.355Z,101832.88
2023-02-15T02:01:59.273Z,101825.41
2023-02-15T02:07:01.031Z,101835.78
2023-02-15T02:12:02.513Z,101828.00
2023-02-15T02:17:10.213Z,101820.56
2023-02-15T02:22:20.808Z,101805.41
2023-02-15T02:27:33.647Z,101807.22
2023-02-15T02:32:56.453Z,101806.81
2023-02-15T02:38:12.546Z,101802.97
2023-02-15T02:43:26.819Z,101794.75
2023-02-15T02:48:32.228Z,101804.41
2023-02-15T02:53:34.860Z,101802.28
2023-02-15T02:58:45.962Z,101800.56
2023-02-15T03:04:05.888Z,101794.06
2023-02-15T03:09:46.717Z,101776.59
2023-02-15T03:14:56.643Z,101773.53
2023-02-15T03:20:02.559Z,101768.81
2023-02-15T03:25:09.425Z,101772.34
2023-02-15T03:30:12.938Z,101768.53
2023-02-15T03:35:14.440Z,101775.47
2023-02-15T03:40:53.936Z,101771.94
2023-02-15T03:46:01.128Z,101765.75
2023-02-15T03:51:27.287Z,101761.69
2023-02-15T03:56:28.615Z,101771.28
2023-02-15T04:01:59.024Z,101775.47
2023-02-15T04:07:01.309Z,101764.69
2023-02-15T04:12:02.669Z,101763.19
2023-02-15T04:17:07.203Z,101755.28
2023-02-15T04:22:27.205Z,101753.00
2023-02-15T04:27:28.569Z,101753.94
2023-02-15T04:32:29.875Z,101753.19
2023-02-15T04:37:31.201Z,101755.84
2023-02-15T04:42:33.179Z,101750.19
2023-02-15T04:47:34.788Z,101751.06
2023-02-15T04:52:36.543Z,101737.84
2023-02-15T04:57:37.947Z,101745.19
2023-02-15T05:02:39.373Z,101737.16
2023-02-15T05:07:40.744Z,101734.19
2023-02-15T05:12:42.093Z,101744.53
2023-02-15T05:17:43.412Z,101740.16
2023-02-15T05:22:45.058Z,101725.88
2023-02-15T05:28:05.430Z,101722.19
2023-02-15T05:33:07.999Z,101717.59
2023-02-15T05:38:09.564Z,101721.31
2023-02-15T05:43:10.998Z,101722.50
2023-02-15T05:48:12.747Z,101723.13
2023-02-15T05:53:14.181Z,101722.91
2023-02-15T05:58:15.508Z,101725.69
2023-02-15T06:03:16.837Z,101728.25
2023-02-15T06:08:18.578Z,101724.50
2023-02-15T06:13:19.934Z,101742.31
2023-02-15T06:18:21.515Z,101743.56
2023-02-15T06:23:23.037Z,101738.47
2023-02-15T06:28:26.378Z,101737.38
2023-02-15T06:33:28.064Z,101749.44
2023-02-15T06:38:29.456Z,101744.75
2023-02-15T06:43:30.820Z,101751.25
2023-02-15T06:48:32.265Z,101752.44
2023-02-15T06:53:33.914Z,101752.13
2023-02-15T06:58:36.523Z,101749.97
2023-02-15T07:03:38.145Z,101760.53
2023-02-15T07:08:40.258Z,101766.94
2023-02-15T07:13:43.510Z,101774.72
2023-02-15T07:18:45.037Z,101774.19
2023-02-15T07:23:47.748Z,101770.16
2023-02-15T07:28:49.364Z,101769.16
2023-02-15T07:33:51.254Z,101763.72
2023-02-15T07:38:52.715Z,101765.34
2023-02-15T07:43:54.325Z,101763.72
2023-02-15T07:48:55.894Z,101757.13
2023-02-15T07:53:57.558Z,101757.91
2023-02-15T07:59:00.610Z,101749.31
2023-02-15T08:04:03.591Z,101753.00
2023-02-15T08:09:07.257Z,101749.16
2023-02-15T08:14:08.720Z,101753.66
2023-02-15T08:19:16.915Z,101748.47
2023-02-15T08:24:21.291Z,101752.97
2023-02-15T08:29:25.836Z,101742.63
2023-02-15T08:34:27.303Z,101741.53
2023-02-15T08:39:29.459Z,101745.75
2023-02-15T08:44:30.892Z,101742.94
2023-02-15T08:49:32.771Z,101741.03
2023-02-15T08:54:34.151Z,101737.47
2023-02-15T08:59:35.473Z,101730.44
2023-02-15T09:04:36.775Z,101733.19
2023-02-15T09:09:38.104Z,101726.56
2023-02-15T09:14:39.471Z,101718.03
2023-02-15T09:19:40.808Z,101716.38
2023-02-15T09:24:42.284Z,101718.22
2023-02-15T09:29:43.708Z,101716.78
2023-02-15T09:34:45.111Z,101717.84
2023-02-15T09:39:49.065Z,101706.78
2023-02-15T09:45:25.426Z,101710.38
2023-02-15T09:50:44.956Z,101718.78
2023-02-15T09:56:01.257Z,101718.53
2023-02-15T10:01:17.910Z,101711.28
2023-02-15T10:06:49.162Z,101718.38
2023-02-15T10:12:11.957Z,101721.69
2023-02-15T10:17:53.758Z,101729.75
2023-02-15T10:23:07.280Z,101726.03
2023-02-15T10:28:27.529Z,101731.19
2023-02-15T10:33:39.575Z,101725.09
2023-02-15T10:39:02.304Z,101719.03
2023-02-15T10:44:26.746Z,101718.06
2023-02-15T10:49:41.468Z,101714.13
2023-02-15T10:54:56.558Z,101710.78
2023-02-15T11:00:06.292Z,101711.50
2023-02-15T11:05:32.299Z,101706.63
2023-02-15T11:10:43.808Z,101704.72
2023-02-15T11:16:26.647Z,101701.00
2023-02-15T11:21:37.786Z,101698.47
2023-02-15T11:26:57.616Z,101702.22
2023-02-15T11:32:25.944Z,101696.31
2023-02-15T11:37:36.963Z,101691.66
2023-02-15T11:42:38.338Z,101683.25
2023-02-15T11:47:39.704Z,101682.63
2023-02-15T11:52:41.055Z,101677.28
2023-02-15T11:57:48.074Z,101674.00
2023-02-15T12:02:54.672Z,101664.38
2023-02-15T12:08:22.306Z,101658.75
2023-02-15T12:13:24.492Z,101649.81
2023-02-15T12:18:42.143Z,101653.06
2023-02-15T12:23:50.105Z,101648.44
2023-02-15T12:28:53.171Z,101643.44
2023-02-15T12:33:58.219Z,101641.06
2023-02-15T12:39:08.721Z,101631.91
2023-02-15T12:44:20.708Z,101624.91
2023-02-15T12:49:22.211Z,101616.78
2023-02-15T12:54:23.904Z,101614.66
2023-02-15T12:59:25.852Z,101616.13
2023-02-15T13:04:30.401Z,101596.41
2023-02-15T13:09:32.099Z,101600.88
2023-02-15T13:14:34.386Z,101587.28
2023-02-15T13:19:40.916Z,101578.59
2023-02-15T13:24:50.928Z,101565.38
2023-02-15T13:30:00.155Z,101566.03
2023-02-15T13:35:06.142Z,101561.72
2023-02-15T13:40:25.525Z,101554.28
2023-02-15T13:45:56.070Z,101553.06
2023-02-15T13:51:19.250Z,101554.34
2023-02-15T13:56:33.366Z,101537.63
2023-02-15T14:01:56.764Z,101540.19
2023-02-15T14:07:22.589Z,101538.69
2023-02-15T14:12:38.955Z,101530.66
2023-02-15T14:17:56.389Z,101524.59
2023-02-15T14:23:30.735Z,101519.88
2023-02-15T14:28:59.139Z,101513.09
2023-02-15T14:34:00.544Z,101515.91
2023-02-15T14:39:55.944Z,101510.44
2023-02-15T14:45:06.018Z,101510.56
2023-02-15T14:50:32.192Z,101506.31
2023-02-15T14:55:37.474Z,101501.69
2023-02-15T15:00:40.794Z,101494.81
2023-02-15T15:05:59.542Z,101495.63
2023-02-15T15:11:41.128Z,101496.91
2023-02-15T15:16:49.682Z,101500.41
2023-02-15T15:21:50.961Z,101499.47
2023-02-15T15:27:30.692Z,101493.72
2023-02-15T15:32:35.612Z,101491.19
2023-02-15T15:37:52.753Z,101497.13
2023-02-15T15:43:06.067Z,101494.72
2023-02-15T15:48:29.287Z,101499.16
2023-02-15T15:53:40.869Z,101499.75
2023-02-15T15:58:47.327Z,101485.69
2023-02-15T16:03:53.938Z,101483.03
2023-02-15T16:08:55.805Z,101486.13
2023-02-15T16:13:57.181Z,101485.19
2023-02-15T16:19:00.432Z,101480.69
2023-02-15T16:24:31.373Z,101489.53
2023-02-15T16:29:34.678Z,101475.63
2023-02-15T16:34:36.034Z,101487.59
2023-02-15T16:39:42.154Z,101499.38
2023-02-15T16:44:46.028Z,101491.88
2023-02-15T16:49:50.594Z,101493.56
2023-02-15T16:54:58.883Z,101488.38
2023-02-15T17:00:09.167Z,101487.00
2023-02-15T17:05:14.473Z,101491.25
2023-02-15T17:10:29.737Z,101489.44
2023-02-15T17:15:36.840Z,101501.81
2023-02-15T17:20:42.648Z,101503.75
2023-02-15T17:25:44.363Z,101507.81
2023-02-15T17:30:47.232Z,101509.22
2023-02-15T17:36:12.601Z,101508.75
2023-02-15T17:41:17.025Z,101511.34
2023-02-15T17:46:19.609Z,101511.41
2023-02-15T17:51:22.023Z,101510.59
2023-02-15T17:56:23.379Z,101519.16
2023-02-15T18:01:43.531Z,101498.25
2023-02-15T18:07:03.196Z,101492.63
2023-02-15T18:12:32.117Z,101487.75
2023-02-15T18:17:39.055Z,101489.19
2023-02-15T18:22:40.406Z,101496.19
2023-02-15T18:27:41.758Z,101513.69
2023-02-15T18:32:45.881Z,101507.84
2023-02-15T18:37:48.258Z,101497.47
2023-02-15T18:42:49.753Z,101499.81
2023-02-15T18:47:51.745Z,101489.16
2023-02-15T18:52:53.837Z,101497.66
2023-02-15T18:57:58.891Z,101498.94
2023-02-15T19:03:04.734Z,101502.16
2023-02-15T19:08:16.920Z,101500.25
2023-02-15T19:13:18.286Z,101506.22
2023-02-15T19:18:19.656Z,101500.03
2023-02-15T19:23:23.345Z,101499.03
2023-02-15T19:28:31.055Z,101492.03
2023-02-15T19:33:32.421Z,101500.88
2023-02-15T19:38:37.395Z,101504.53
2023-02-15T19:43:38.950Z,101505.72
2023-02-15T19:48:40.321Z,101505.56
2023-02-15T19:53:41.820Z,101501.97
2023-02-15T19:58:43.158Z,101497.72
2023-02-15T20:03:44.706Z,101510.59
2023-02-15T20:08:46.198Z,101518.97
2023-02-15T20:13:47.650Z,101510.88
2023-02-15T20:18:49.114Z,101510.91
2023-02-15T20:23:50.503Z,101522.94
2023-02-15T20:28:52.536Z,101512.41
2023-02-15T20:33:53.959Z,101508.22
2023-02-15T20:38:57.310Z,101506.19
2023-02-15T20:43:58.742Z,101510.88
2023-02-15T20:49:00.130Z,101511.81
2023-02-15T20:54:01.594Z,101509.41
2023-02-15T20:59:06.401Z,101513.16
2023-02-15T21:04:10.212Z,101507.09
2023-02-15T21:09:14.446Z,101498.75
2023-02-15T21:14:25.228Z,101500.97
2023-02-15T21:19:27.364Z,101502.81
2023-02-15T21:24:29.380Z,101496.00
2023-02-15T21:29:31.030Z,101502.03
2023-02-15T21:34:32.367Z,101509.78
2023-02-15T21:39:36.168Z,101509.78
2023-02-15T21:44:56.869Z,101507.88
2023-02-15T21:49:58.283Z,101514.94
2023-02-15T21:54:59.642Z,101512.81
2023-02-15T22:00:02.717Z,101516.84
2023-02-15T22:05:13.464Z,101516.09
2023-02-15T22:10:15.049Z,101507.94
2023-02-15T22:15:24.983Z,101517.91
2023-02-15T22:20:26.412Z,101509.78
2023-02-15T22:25:27.853Z,101494.69
2023-02-15T22:30:32.585Z,101497.22
2023-02-15T22:35:36.652Z,101510.50
2023-02-15T22:40:38.023Z,101512.63
2023-02-15T22:45:39.470Z,101507.94
2023-02-15T22:50:40.858Z,101500.81
2023-02-15T22:55:42.539Z,101507.00
2023-02-15T23:00:44.928Z,101503.31
2023-02-15T23:05:46.979Z,101499.44
2023-02-15T23:10:53.999Z,101491.75
2023-02-15T23:16:01.197Z,101492.50
2023-02-15T23:21:15.555Z,101490.47
2023-02-15T23:26:23.102Z,101479.97
2023-02-15T23:31:28.359Z,101483.78
2023-02-15T23:36:35.434Z,101474.53
2023-02-15T23:41:36.794Z,101480.94
2023-02-15T23:46:46.427Z,101493.88
2023-02-15T23:51:50.378Z,101481.66
2023-02-15T23:56:57.368Z,101479.34
